Latest Coastal Weather Observations for McCluer Island

IDD60701

Issued at 10:31 pm CST Friday 24 November 2017 (issued every 10 minutes, with the page automatically refreshed every 10 minutes)

About coastal observations | Map of coastal stations | Coastal observations for NT | Marine services | Other Formats
Station Details ID: 014274 Name: MCCLUER ISLAND Lat: -11.05 Lon: 132.98 Height: 1.4 m
Data from the previous 72 hours. | See also: Recent months at McCluer Island
Date/Time
CST
Temp
°C
Wind Pressure Rain since
9am
mm
Weather Cloud Vis
km
Sea
Height
m
Swell
Dir  Spd
kts
Gust
kts
hPa Trend Height
m
Period
s
Dir
24/10:30pm 29.4 NE 16 18 1008.1 - 0.0 - - - - - - -
24/10:00pm 29.4 NE 16 19 1008.0 - 0.0 - - - - - - -
24/09:30pm 29.2 NE 15 18 1008.0 - 0.0 - - - - - - -
24/09:00pm 29.6 ENE 16 18 1007.7 - 0.0 - - - - - - -
24/08:30pm 29.2 ENE 16 18 1007.7 - 0.0 - - - - - - -
24/08:00pm 29.4 ENE 14 17 1007.3 - 0.0 - - - - - - -
24/07:30pm 29.3 ENE 12 14 1007.4 - 0.0 - - - - - - -
24/07:00pm 29.6 ENE 12 15 1007.2 - 0.0 - - - - - - -
24/06:30pm 29.7 ENE 13 15 1007.2 - 0.0 - - - - - - -
24/06:00pm 29.4 ENE 14 16 1006.8 - 0.0 - - - - - - -
24/05:30pm 29.7 ENE 14 16 1006.6 - 0.0 - - - - - - -
24/05:00pm 29.4 ENE 13 16 1006.3 - 0.0 - - - - - - -
24/04:30pm 30.2 ENE 12 14 1005.8 - 0.0 - - - - - - -
24/04:00pm 30.0 ENE 10 13 1005.9 - 0.0 - - - - - - -
24/03:30pm 30.0 ENE 10 12 1005.9 - 0.0 - - - - - - -
24/03:00pm 30.2 ENE 10 12 1006.0 - 0.0 - - - - - - -
24/02:30pm 29.8 ENE 9 11 1006.1 - 0.0 - - - - - - -
24/02:00pm 30.4 ENE 10 13 1006.4 - 0.0 - - - - - - -
24/01:30pm 30.4 NE 11 13 1006.9 - 0.0 - - - - - - -
24/01:00pm 30.0 NE 10 14 1007.7 - 0.0 - - - - - - -
24/12:30pm 30.0 NE 11 14 1008.1 - 0.0 - - - - - - -
24/12:00pm 30.1 NE 12 14 1008.2 - 0.0 - - - - - - -
24/11:30am 30.1 NE 13 15 1008.5 - 0.0 - - - - - - -
24/11:00am 29.5 ENE 11 13 1008.6 - 0.0 - - - - - - -
24/10:30am 30.0 ENE 9 11 1008.8 - 0.0 - - - - - - -
24/10:00am 29.6 ENE 9 11 1008.8 - 0.0 - - - - - - -
24/09:30am 29.4 NE 12 14 1008.5 - 0.0 - - - - - - -
24/09:00am 29.5 NE 12 14 1008.3 - 16.0 - - - - - - -
24/08:30am 29.2 NE 13 15 1008.0 - 16.0 - - - - - - -
24/08:00am 29.1 ENE 10 13 1007.9 - 16.0 - - - - - - -
24/07:30am 28.9 NE 11 13 1007.8 - 16.0 - - - - - - -
24/07:00am 29.0 NNE 10 13 1007.7 - 16.0 - - - - - - -
24/06:30am 28.9 NNE 11 14 1007.2 - 16.0 - - - - - - -
24/06:00am 28.8 NE 11 13 1006.9 - 16.0 - - - - - - -
24/05:30am 28.8 NE 10 13 1006.4 - 16.0 - - - - - - -
24/05:00am 28.6 NE 10 12 1005.9 - 16.0 - - - - - - -
24/04:30am 28.6 NE 8 10 1005.5 - 16.0 - - - - - - -
24/04:00am 28.7 NE 9 11 1004.9 - 16.0 - - - - - - -
24/03:30am 29.0 ENE 8 10 1004.5 - 16.0 - - - - - - -
24/03:00am 29.0 NE 10 11 1004.3 - 16.0 - - - - - - -
24/02:30am 28.9 ENE 8 10 1004.6 - 16.0 - - - - - - -
24/02:00am 28.8 NE 9 11 1005.0 - 16.0 - - - - - - -
24/01:30am 28.8 NE 9 11 1005.1 - 16.0 - - - - - - -
24/01:00am 28.6 NNE 10 12 1005.6 - 16.0 - - - - - - -
24/12:30am 28.1 ENE 9 11 1006.2 - 16.0 - - - - - - -
24/12:00am 28.0 E 9 11 1006.4 - 16.0 - - - - - - -
 
Date/Time
CST
Temp
°C
Wind Pressure Rain since
9am
mm
Weather Cloud Vis
km
Sea
Height
m
Swell
Dir  Spd
kts
Gust
kts
hPa Trend Height
m
Period
s
Dir
23/11:30pm 27.2 NE 15 17 1006.6 - 15.6 - - - - - - -
23/11:00pm 26.8 ENE 22 25 1007.7 - 15.2 - - - - - - -
23/10:30pm 26.6 NE 24 29 1008.5 - 14.0 - - - - - - -
23/10:00pm 26.0 ENE 26 30 1009.0 - 13.8 - - - - - - -
23/09:30pm 26.2 ENE 28 32 1008.9 - 13.8 - - - - - - -
23/09:00pm 27.1 ENE 21 30 1008.5 - 13.8 - - - - - - -
23/08:56pm 27.2 ENE 17 27 1008.5 - 13.8 - - - - - - -
23/08:55pm 27.2 ENE 17 24 1008.5 - 13.8 - - - - - - -
23/08:30pm 27.3 NE 10 14 1008.1 - 13.6 - - - - - - -
23/08:00pm 26.9 ENE 14 16 1007.5 - 13.0 - - - - - - -
23/07:30pm 26.3 E 17 21 1007.3 - 12.8 - - - - - - -
23/07:00pm 26.9 E 17 27 1006.9 - 3.2 - - - - - - -
23/06:45pm 27.3 E 10 13 1006.5 - 0.4 - - - - - - -
23/06:30pm 27.6 NE 20 27 1006.3 - 0.4 - - - - - - -
23/06:18pm 28.2 ENE 20 26 1006.0 - 0.0 - - - - - - -
23/06:00pm 29.0 NE 16 18 1005.6 - 0.0 - - - - - - -
23/05:30pm 29.3 NNE 16 19 1005.2 - 0.0 - - - - - - -
23/05:00pm 29.6 NNE 15 18 1005.1 - 0.0 - - - - - - -
23/04:30pm 29.5 NE 15 18 1005.2 - 0.0 - - - - - - -
23/04:00pm 29.6 NE 15 17 1004.7 - 0.0 - - - - - - -
23/03:30pm 29.5 NE 16 19 1004.8 - 0.0 - - - - - - -
23/03:00pm 29.6 NE 16 19 1004.8 - 0.0 - - - - - - -
23/02:30pm 30.4 NE 13 15 1005.0 - 0.0 - - - - - - -
23/02:00pm 30.2 NE 12 14 1005.3 - 0.0 - - - - - - -
23/01:30pm 30.5 ENE 12 14 1005.5 - 0.0 - - - - - - -
23/01:00pm 30.5 ENE 11 13 1005.9 - 0.0 - - - - - - -
23/12:30pm 30.3 ENE 11 13 1006.3 - 0.0 - - - - - - -
23/12:00pm 30.2 NE 12 15 1006.7 - 0.0 - - - - - - -
23/11:30am 30.0 NE 13 15 1007.0 - 0.0 - - - - - - -
23/11:00am 29.8 NE 12 14 1007.1 - 0.0 - - - - - - -
23/10:30am 29.5 ENE 11 13 1007.1 - 0.0 - - - - - - -
23/10:00am 29.7 ENE 12 14 1007.3 - 0.0 - - - - - - -
23/09:30am 29.7 ENE 11 14 1007.4 - 0.0 - - - - - - -
23/09:00am 29.2 NE 11 14 1007.4 - 0.0 - - - - - - -
23/08:30am 29.3 ENE 10 12 1007.2 - 0.0 - - - - - - -
23/08:00am 29.1 ENE 10 12 1006.8 - 0.0 - - - - - - -
23/07:30am 29.5 ENE 7 9 1006.5 - 0.0 - - - - - - -
23/07:00am 28.9 ENE 7 9 1006.1 - 0.0 - - - - - - -
23/06:30am 29.1 NE 6 8 1005.5 - 0.0 - - - - - - -
23/06:00am 28.9 NNE 8 11 1005.2 - 0.0 - - - - - - -
23/05:30am 28.7 N 10 11 1005.0 - 0.0 - - - - - - -
23/05:00am 28.6 N 10 12 1004.7 - 0.0 - - - - - - -
23/04:30am 28.8 N 9 12 1004.4 - 0.0 - - - - - - -
23/04:00am 28.8 NNE 9 12 1004.2 - 0.0 - - - - - - -
23/03:30am 28.7 NNE 7 9 1004.0 - 0.0 - - - - - - -
23/03:00am 28.7 NNE 7 9 1003.8 - 0.0 - - - - - - -
23/02:30am 28.9 NNE 8 9 1003.7 - 0.0 - - - - - - -
23/02:00am 28.9 NE 9 11 1004.2 - 0.0 - - - - - - -
23/01:30am 28.9 ENE 9 10 1004.7 - 0.0 - - - - - - -
23/01:00am 28.7 ENE 8 11 1005.3 - 0.0 - - - - - - -
23/12:30am 28.7 NE 10 12 1005.7 - 0.0 - - - - - - -
23/12:00am 28.9 NE 11 13 1006.1 - 0.0 - - - - - - -
 
Date/Time
CST
Temp
°C
Wind Pressure Rain since
9am
mm
Weather Cloud Vis
km
Sea
Height
m
Swell
Dir  Spd
kts
Gust
kts
hPa Trend Height
m
Period
s
Dir
22/11:30pm 29.1 NE 14 16 1006.3 - 0.0 - - - - - - -
22/11:00pm 29.3 NE 9 11 1006.7 - 0.0 - - - - - - -
22/10:30pm 29.0 NE 9 11 1006.8 - 0.0 - - - - - - -
22/10:00pm 29.0 NE 10 12 1007.0 - 0.0 - - - - - - -
22/09:30pm 28.9 NE 13 17 1006.9 - 0.0 - - - - - - -
22/09:00pm 29.0 NE 10 11 1006.8 - 0.0 - - - - - - -
22/08:30pm 29.2 NE 9 11 1006.8 - 0.0 - - - - - - -
22/08:00pm 28.9 NE 10 13 1006.4 - 0.0 - - - - - - -
22/07:30pm 29.2 NE 10 13 1005.7 - 0.0 - - - - - - -
22/07:00pm 28.9 NNE 11 14 1004.9 - 0.0 - - - - - - -
22/06:30pm 29.0 NNE 11 13 1004.8 - 0.0 - - - - - - -
22/06:00pm 29.2 NNE 14 17 1004.4 - 0.0 - - - - - - -
22/05:30pm 29.2 NNE 14 16 1003.9 - 0.0 - - - - - - -
22/05:00pm 29.5 NNE 15 18 1003.7 - 0.0 - - - - - - -
22/04:30pm 29.1 E 16 20 1003.5 - 0.0 - - - - - - -
22/04:00pm 30.3 ENE 13 15 1003.3 - 0.0 - - - - - - -
22/03:30pm 30.7 ENE 14 17 1003.3 - 0.0 - - - - - - -
22/03:00pm 30.4 ENE 14 16 1003.3 - 0.0 - - - - - - -
22/02:30pm 30.4 ENE 14 16 1003.6 - 0.0 - - - - - - -
22/02:00pm 30.8 ENE 13 15 1004.3 - 0.0 - - - - - - -
22/01:30pm 30.6 ENE 14 16 1004.7 - 0.0 - - - - - - -
22/01:00pm 30.2 ENE 13 16 1005.2 - 0.0 - - - - - - -
22/12:30pm 30.7 ENE 14 16 1005.7 - 0.0 - - - - - - -
22/12:00pm 30.8 ENE 11 13 1006.3 - 0.0 - - - - - - -
22/11:30am 30.7 ENE 11 14 1006.7 - 0.0 - - - - - - -
22/10:30am 30.1 ENE 12 15 1007.0 - 0.0 - - - - - - -
22/10:00am 30.1 ENE 12 14 1007.1 - 0.0 - - - - - - -
22/09:30am 30.4 ENE 12 14 1007.3 - 0.0 - - - - - - -
22/09:00am 30.0 ENE 12 14 1007.3 - 0.0 - - - - - - -
22/08:30am 29.7 ENE 11 13 1007.2 - 0.0 - - - - - - -
22/08:00am 29.4 ENE 11 13 1007.0 - 0.0 - - - - - - -
22/07:30am 29.6 ENE 11 14 1006.5 - 0.0 - - - - - - -
22/07:00am 29.2 ENE 11 13 1006.1 - 0.0 - - - - - - -
22/06:30am 29.0 ENE 11 13 1005.7 - 0.0 - - - - - - -
22/06:00am 29.3 ENE 10 13 1005.3 - 0.0 - - - - - - -
22/05:30am 29.0 ENE 9 12 1005.4 - 0.0 - - - - - - -
22/05:00am 29.2 ENE 11 13 1005.1 - 0.0 - - - - - - -
22/04:30am 28.9 NE 13 15 1004.8 - 0.0 - - - - - - -
22/04:00am 29.0 NE 13 15 1004.7 - 0.0 - - - - - - -
22/03:30am 29.0 NE 13 16 1004.6 - 0.0 - - - - - - -
22/03:00am 29.1 NE 14 16 1004.8 - 0.0 - - - - - - -
22/02:30am 29.1 ENE 12 14 1005.1 - 0.0 - - - - - - -
22/02:00am 29.0 ENE 11 14 1005.4 - 0.0 - - - - - - -
22/01:30am 29.1 ENE 11 13 1005.7 - 0.0 - - - - - - -
22/01:00am 29.2 NE 10 13 1005.9 - 0.0 - - - - - - -
22/12:30am 29.3 ENE 11 13 1006.1 - 0.0 - - - - - - -
22/12:00am 29.5 ENE 11 14 1006.0 - 0.0 - - - - - - -
 
Date/Time
CST
Temp
°C
Wind Pressure Rain since
9am
mm
Weather Cloud Vis
km
Sea
Height
m
Swell
Dir  Spd
kts
Gust
kts
hPa Trend Height
m
Period
s
Dir
21/11:30pm 29.4 ENE 13 15 1006.1 - 0.0 - - - - - - -
21/11:00pm 30.0 NE 13 15 1006.2 - 0.0 - - - - - - -

Other Formats:

Comma delimited format used in spreadsheet applications
http://www.bom.gov.au/fwo/IDD60701/IDD60701.94135.axf

JavaScript Object Notation format (JSON) in row-major order
http://www.bom.gov.au/fwo/IDD60701/IDD60701.94135.json